sensor_id;sensor_type;location;lat;lon;timestamp;temperature;humidity
8002;DHT22;4046;48.774;8.732;2023-04-03T00:00:46;20.50;82.50
8002;DHT22;4046;48.774;8.732;2023-04-03T00:03:14;20.50;82.50
8002;DHT22;4046;48.774;8.732;2023-04-03T00:05:40;20.50;82.50
8002;DHT22;4046;48.774;8.732;2023-04-03T00:08:08;20.50;83.20
8002;DHT22;4046;48.774;8.732;2023-04-03T00:10:36;20.50;82.40
8002;DHT22;4046;48.774;8.732;2023-04-03T00:13:04;20.50;82.40
8002;DHT22;4046;48.774;8.732;2023-04-03T00:15:31;20.40;82.30
8002;DHT22;4046;48.774;8.732;2023-04-03T00:17:57;20.50;82.40
8002;DHT22;4046;48.774;8.732;2023-04-03T00:20:24;20.50;82.40
8002;DHT22;4046;48.774;8.732;2023-04-03T00:22:50;20.50;82.40
8002;DHT22;4046;48.774;8.732;2023-04-03T00:25:17;20.50;82.30
8002;DHT22;4046;48.774;8.732;2023-04-03T00:27:43;20.50;82.30
8002;DHT22;4046;48.774;8.732;2023-04-03T00:30:13;20.40;82.20
8002;DHT22;4046;48.774;8.732;2023-04-03T00:32:39;20.40;82.30
8002;DHT22;4046;48.774;8.732;2023-04-03T00:35:06;20.40;82.30
8002;DHT22;4046;48.774;8.732;2023-04-03T00:37:32;20.50;82.30
8002;DHT22;4046;48.774;8.732;2023-04-03T00:39:59;20.40;82.20
8002;DHT22;4046;48.774;8.732;2023-04-03T00:42:25;20.50;82.30
8002;DHT22;4046;48.774;8.732;2023-04-03T00:47:24;20.50;82.20
8002;DHT22;4046;48.774;8.732;2023-04-03T00:49:52;20.40;82.10
8002;DHT22;4046;48.774;8.732;2023-04-03T00:52:21;20.40;82.10
8002;DHT22;4046;48.774;8.732;2023-04-03T00:54:50;20.40;82.10
8002;DHT22;4046;48.774;8.732;2023-04-03T00:57:19;20.40;82.10
8002;DHT22;4046;48.774;8.732;2023-04-03T00:59:50;20.40;82.10
8002;DHT22;4046;48.774;8.732;2023-04-03T01:02:17;20.40;82.10
8002;DHT22;4046;48.774;8.732;2023-04-03T01:04:44;20.50;82.10
8002;DHT22;4046;48.774;8.732;2023-04-03T01:07:23;20.50;82.10
8002;DHT22;4046;48.774;8.732;2023-04-03T01:09:53;20.50;82.10
8002;DHT22;4046;48.774;8.732;2023-04-03T01:12:24;20.40;82.00
8002;DHT22;4046;48.774;8.732;2023-04-03T01:15:06;20.40;82.00
8002;DHT22;4046;48.774;8.732;2023-04-03T01:17:36;20.40;82.00
8002;DHT22;4046;48.774;8.732;2023-04-03T01:28:14;20.40;82.00
8002;DHT22;4046;48.774;8.732;2023-04-03T01:33:42;20.40;81.90
8002;DHT22;4046;48.774;8.732;2023-04-03T01:36:08;20.40;81.90
8002;DHT22;4046;48.774;8.732;2023-04-03T01:38:35;20.40;81.90
8002;DHT22;4046;48.774;8.732;2023-04-03T01:41:01;20.40;81.80
8002;DHT22;4046;48.774;8.732;2023-04-03T01:43:28;20.40;81.80
8002;DHT22;4046;48.774;8.732;2023-04-03T01:45:54;20.50;82.00
8002;DHT22;4046;48.774;8.732;2023-04-03T01:48:21;20.40;81.80
8002;DHT22;4046;48.774;8.732;2023-04-03T01:50:47;20.40;81.80
8002;DHT22;4046;48.774;8.732;2023-04-03T01:53:13;20.40;81.80
8002;DHT22;4046;48.774;8.732;2023-04-03T01:55:40;20.40;81.80
8002;DHT22;4046;48.774;8.732;2023-04-03T01:58:06;20.40;81.70
8002;DHT22;4046;48.774;8.732;2023-04-03T02:00:32;20.40;81.70
8002;DHT22;4046;48.774;8.732;2023-04-03T02:02:58;20.40;81.70
8002;DHT22;4046;48.774;8.732;2023-04-03T02:05:24;20.40;81.80
8002;DHT22;4046;48.774;8.732;2023-04-03T02:07:50;20.40;81.70
8002;DHT22;4046;48.774;8.732;2023-04-03T02:10:17;20.40;81.70
8002;DHT22;4046;48.774;8.732;2023-04-03T02:12:43;20.40;81.70
8002;DHT22;4046;48.774;8.732;2023-04-03T02:15:09;20.40;81.70
8002;DHT22;4046;48.774;8.732;2023-04-03T02:17:36;20.50;81.80
8002;DHT22;4046;48.774;8.732;2023-04-03T02:20:03;20.40;81.60
8002;DHT22;4046;48.774;8.732;2023-04-03T02:22:30;20.40;81.60
8002;DHT22;4046;48.774;8.732;2023-04-03T02:24:56;20.40;81.60
8002;DHT22;4046;48.774;8.732;2023-04-03T02:27:23;20.40;81.60
8002;DHT22;4046;48.774;8.732;2023-04-03T02:29:50;20.40;81.60
8002;DHT22;4046;48.774;8.732;2023-04-03T02:32:16;20.40;81.60
8002;DHT22;4046;48.774;8.732;2023-04-03T02:34:42;20.40;81.60
8002;DHT22;4046;48.774;8.732;2023-04-03T02:37:09;20.40;81.60
8002;DHT22;4046;48.774;8.732;2023-04-03T02:39:35;20.40;81.60
8002;DHT22;4046;48.774;8.732;2023-04-03T02:42:01;20.40;81.60
8002;DHT22;4046;48.774;8.732;2023-04-03T02:44:28;20.40;81.60
8002;DHT22;4046;48.774;8.732;2023-04-03T02:46:54;20.40;81.60
8002;DHT22;4046;48.774;8.732;2023-04-03T02:49:21;20.40;81.50
8002;DHT22;4046;48.774;8.732;2023-04-03T02:51:47;20.40;81.60
8002;DHT22;4046;48.774;8.732;2023-04-03T02:54:13;20.40;81.50
8002;DHT22;4046;48.774;8.732;2023-04-03T02:56:39;20.40;81.60
8002;DHT22;4046;48.774;8.732;2023-04-03T02:59:06;20.40;81.50
8002;DHT22;4046;48.774;8.732;2023-04-03T03:01:32;20.40;81.50
8002;DHT22;4046;48.774;8.732;2023-04-03T03:03:59;20.40;81.50
8002;DHT22;4046;48.774;8.732;2023-04-03T03:06:26;20.40;81.40
8002;DHT22;4046;48.774;8.732;2023-04-03T03:08:52;20.40;81.50
8002;DHT22;4046;48.774;8.732;2023-04-03T03:11:19;20.40;81.50
8002;DHT22;4046;48.774;8.732;2023-04-03T03:13:45;20.40;81.40
8002;DHT22;4046;48.774;8.732;2023-04-03T03:16:12;20.40;81.40
8002;DHT22;4046;48.774;8.732;2023-04-03T03:18:38;20.40;81.40
8002;DHT22;4046;48.774;8.732;2023-04-03T03:21:05;20.50;81.50
8002;DHT22;4046;48.774;8.732;2023-04-03T03:23:32;20.40;81.40
8002;DHT22;4046;48.774;8.732;2023-04-03T03:26:01;20.40;81.40
8002;DHT22;4046;48.774;8.732;2023-04-03T03:28:27;20.40;81.40
8002;DHT22;4046;48.774;8.732;2023-04-03T03:30:54;20.40;81.30
8002;DHT22;4046;48.774;8.732;2023-04-03T03:33:20;20.40;81.30
8002;DHT22;4046;48.774;8.732;2023-04-03T03:35:46;20.40;81.30
8002;DHT22;4046;48.774;8.732;2023-04-03T03:38:13;20.40;81.40
8002;DHT22;4046;48.774;8.732;2023-04-03T03:40:39;20.40;81.30
8002;DHT22;4046;48.774;8.732;2023-04-03T03:43:05;20.40;81.30
8002;DHT22;4046;48.774;8.732;2023-04-03T03:45:32;20.40;81.30
8002;DHT22;4046;48.774;8.732;2023-04-03T03:47:58;20.40;81.30
8002;DHT22;4046;48.774;8.732;2023-04-03T03:50:24;20.40;81.30
8002;DHT22;4046;48.774;8.732;2023-04-03T03:52:50;20.40;81.30
8002;DHT22;4046;48.774;8.732;2023-04-03T03:55:17;20.40;81.30
8002;DHT22;4046;48.774;8.732;2023-04-03T03:57:43;20.40;81.30
8002;DHT22;4046;48.774;8.732;2023-04-03T04:00:09;20.40;81.20
8002;DHT22;4046;48.774;8.732;2023-04-03T04:02:36;20.40;81.20
8002;DHT22;4046;48.774;8.732;2023-04-03T04:05:02;20.40;81.20
8002;DHT22;4046;48.774;8.732;2023-04-03T04:07:29;20.40;81.20
8002;DHT22;4046;48.774;8.732;2023-04-03T04:09:55;20.40;81.20
8002;DHT22;4046;48.774;8.732;2023-04-03T04:12:21;20.40;81.20
8002;DHT22;4046;48.774;8.732;2023-04-03T04:14:47;20.40;81.20
8002;DHT22;4046;48.774;8.732;2023-04-03T04:17:14;20.40;82.00
8002;DHT22;4046;48.774;8.732;2023-04-03T04:19:40;20.40;81.20
8002;DHT22;4046;48.774;8.732;2023-04-03T04:22:06;20.40;81.20
8002;DHT22;4046;48.774;8.732;2023-04-03T04:24:33;20.40;81.10
8002;DHT22;4046;48.774;8.732;2023-04-03T04:26:59;20.40;81.20
8002;DHT22;4046;48.774;8.732;2023-04-03T04:29:25;20.40;81.10
8002;DHT22;4046;48.774;8.732;2023-04-03T04:31:52;20.40;81.20
8002;DHT22;4046;48.774;8.732;2023-04-03T04:34:19;20.40;81.20
8002;DHT22;4046;48.774;8.732;2023-04-03T04:36:45;20.40;81.10
8002;DHT22;4046;48.774;8.732;2023-04-03T04:39:11;20.40;81.10
8002;DHT22;4046;48.774;8.732;2023-04-03T04:41:37;20.40;81.10
8002;DHT22;4046;48.774;8.732;2023-04-03T04:44:03;20.40;81.20
8002;DHT22;4046;48.774;8.732;2023-04-03T04:46:29;20.40;81.10
8002;DHT22;4046;48.774;8.732;2023-04-03T04:48:56;20.40;81.10
8002;DHT22;4046;48.774;8.732;2023-04-03T04:51:25;20.40;81.10
8002;DHT22;4046;48.774;8.732;2023-04-03T04:53:51;20.40;81.10
8002;DHT22;4046;48.774;8.732;2023-04-03T04:56:17;20.40;81.00
8002;DHT22;4046;48.774;8.732;2023-04-03T04:58:43;20.40;81.00
8002;DHT22;4046;48.774;8.732;2023-04-03T05:01:10;20.40;81.00
8002;DHT22;4046;48.774;8.732;2023-04-03T05:03:37;20.40;81.00
8002;DHT22;4046;48.774;8.732;2023-04-03T05:06:03;20.40;81.00
8002;DHT22;4046;48.774;8.732;2023-04-03T05:08:30;20.40;81.00
8002;DHT22;4046;48.774;8.732;2023-04-03T05:10:57;20.40;81.00
8002;DHT22;4046;48.774;8.732;2023-04-03T05:13:23;20.40;81.00
8002;DHT22;4046;48.774;8.732;2023-04-03T05:15:49;20.40;81.00
8002;DHT22;4046;48.774;8.732;2023-04-03T05:18:15;20.40;81.00
8002;DHT22;4046;48.774;8.732;2023-04-03T05:20:42;20.40;80.90
8002;DHT22;4046;48.774;8.732;2023-04-03T05:23:10;20.40;80.90
8002;DHT22;4046;48.774;8.732;2023-04-03T05:25:38;20.40;81.00
8002;DHT22;4046;48.774;8.732;2023-04-03T05:28:04;20.40;81.00
8002;DHT22;4046;48.774;8.732;2023-04-03T05:30:30;20.40;81.00
8002;DHT22;4046;48.774;8.732;2023-04-03T05:32:58;20.40;80.90
8002;DHT22;4046;48.774;8.732;2023-04-03T05:35:24;20.40;80.90
8002;DHT22;4046;48.774;8.732;2023-04-03T05:37:51;20.40;80.90
8002;DHT22;4046;48.774;8.732;2023-04-03T05:40:17;20.40;80.80
8002;DHT22;4046;48.774;8.732;2023-04-03T05:42:44;20.40;80.80
8002;DHT22;4046;48.774;8.732;2023-04-03T05:45:11;20.40;80.80
8002;DHT22;4046;48.774;8.732;2023-04-03T05:47:37;20.40;80.80
8002;DHT22;4046;48.774;8.732;2023-04-03T05:50:03;20.40;81.60
8002;DHT22;4046;48.774;8.732;2023-04-03T05:52:33;20.40;80.70
8002;DHT22;4046;48.774;8.732;2023-04-03T05:55:01;20.40;80.70
8002;DHT22;4046;48.774;8.732;2023-04-03T05:57:27;20.40;80.70
8002;DHT22;4046;48.774;8.732;2023-04-03T05:59:53;20.40;80.70
8002;DHT22;4046;48.774;8.732;2023-04-03T06:02:21;20.40;80.60
8002;DHT22;4046;48.774;8.732;2023-04-03T06:04:48;20.40;80.60
8002;DHT22;4046;48.774;8.732;2023-04-03T06:07:17;20.40;80.60
8002;DHT22;4046;48.774;8.732;2023-04-03T06:09:44;20.40;80.60
8002;DHT22;4046;48.774;8.732;2023-04-03T06:12:10;20.40;80.60
8002;DHT22;4046;48.774;8.732;2023-04-03T06:14:37;20.40;80.60
8002;DHT22;4046;48.774;8.732;2023-04-03T06:17:04;20.40;80.60
8002;DHT22;4046;48.774;8.732;2023-04-03T06:19:30;20.50;80.70
8002;DHT22;4046;48.774;8.732;2023-04-03T06:21:57;20.40;80.50
8002;DHT22;4046;48.774;8.732;2023-04-03T06:24:23;20.40;80.50
8002;DHT22;4046;48.774;8.732;2023-04-03T06:26:51;20.50;80.50
8002;DHT22;4046;48.774;8.732;2023-04-03T06:29:19;20.50;80.60
8002;DHT22;4046;48.774;8.732;2023-04-03T06:31:46;20.50;80.50
8002;DHT22;4046;48.774;8.732;2023-04-03T06:34:13;20.50;80.50
8002;DHT22;4046;48.774;8.732;2023-04-03T06:36:39;20.50;80.50
8002;DHT22;4046;48.774;8.732;2023-04-03T06:39:06;20.50;80.50
8002;DHT22;4046;48.774;8.732;2023-04-03T06:41:33;20.50;80.40
8002;DHT22;4046;48.774;8.732;2023-04-03T06:43:59;20.50;80.40
8002;DHT22;4046;48.774;8.732;2023-04-03T06:46:26;20.50;80.40
8002;DHT22;4046;48.774;8.732;2023-04-03T06:48:53;20.50;80.40
8002;DHT22;4046;48.774;8.732;2023-04-03T06:51:23;20.50;80.30
8002;DHT22;4046;48.774;8.732;2023-04-03T06:53:51;20.50;80.30
8002;DHT22;4046;48.774;8.732;2023-04-03T06:56:18;20.60;80.30
8002;DHT22;4046;48.774;8.732;2023-04-03T06:58:44;20.60;80.30
8002;DHT22;4046;48.774;8.732;2023-04-03T07:01:12;20.60;80.30
8002;DHT22;4046;48.774;8.732;2023-04-03T07:03:38;20.60;80.20
8002;DHT22;4046;48.774;8.732;2023-04-03T07:06:05;20.60;80.20
8002;DHT22;4046;48.774;8.732;2023-04-03T07:08:34;20.60;80.20
8002;DHT22;4046;48.774;8.732;2023-04-03T07:11:01;20.60;80.20
8002;DHT22;4046;48.774;8.732;2023-04-03T07:13:27;20.60;80.20
8002;DHT22;4046;48.774;8.732;2023-04-03T07:15:53;20.60;80.20
8002;DHT22;4046;48.774;8.732;2023-04-03T07:18:20;20.60;80.20
8002;DHT22;4046;48.774;8.732;2023-04-03T07:20:47;20.60;80.10
8002;DHT22;4046;48.774;8.732;2023-04-03T07:23:13;20.60;80.10
8002;DHT22;4046;48.774;8.732;2023-04-03T07:25:47;20.60;80.00
8002;DHT22;4046;48.774;8.732;2023-04-03T07:28:14;20.60;80.00
8002;DHT22;4046;48.774;8.732;2023-04-03T07:30:45;20.60;80.00
8002;DHT22;4046;48.774;8.732;2023-04-03T07:33:13;20.60;80.00
8002;DHT22;4046;48.774;8.732;2023-04-03T07:35:40;20.70;80.10
8002;DHT22;4046;48.774;8.732;2023-04-03T07:38:06;20.70;80.00
8002;DHT22;4046;48.774;8.732;2023-04-03T07:40:33;20.70;80.00
8002;DHT22;4046;48.774;8.732;2023-04-03T07:42:59;20.70;79.90
8002;DHT22;4046;48.774;8.732;2023-04-03T07:45:26;20.60;79.80
8002;DHT22;4046;48.774;8.732;2023-04-03T07:47:52;20.70;80.00
8002;DHT22;4046;48.774;8.732;2023-04-03T07:50:19;20.70;79.90
8002;DHT22;4046;48.774;8.732;2023-04-03T07:52:45;20.70;79.90
8002;DHT22;4046;48.774;8.732;2023-04-03T07:55:12;20.60;79.80
8002;DHT22;4046;48.774;8.732;2023-04-03T07:57:38;20.60;79.90
8002;DHT22;4046;48.774;8.732;2023-04-03T08:00:05;20.60;79.90
8002;DHT22;4046;48.774;8.732;2023-04-03T08:02:32;20.60;79.70
8002;DHT22;4046;48.774;8.732;2023-04-03T08:04:58;20.60;79.70
8002;DHT22;4046;48.774;8.732;2023-04-03T08:07:25;20.70;79.80
8002;DHT22;4046;48.774;8.732;2023-04-03T08:09:51;20.70;79.80
8002;DHT22;4046;48.774;8.732;2023-04-03T08:12:18;20.60;79.70
8002;DHT22;4046;48.774;8.732;2023-04-03T08:14:44;20.60;79.60
8002;DHT22;4046;48.774;8.732;2023-04-03T08:17:10;20.60;79.70
8002;DHT22;4046;48.774;8.732;2023-04-03T08:19:38;20.60;79.70
8002;DHT22;4046;48.774;8.732;2023-04-03T08:22:04;20.60;79.70
8002;DHT22;4046;48.774;8.732;2023-04-03T08:24:34;20.60;79.60
8002;DHT22;4046;48.774;8.732;2023-04-03T08:27:01;20.60;79.60
8002;DHT22;4046;48.774;8.732;2023-04-03T08:29:27;20.60;79.70
8002;DHT22;4046;48.774;8.732;2023-04-03T08:31:53;20.60;79.70
8002;DHT22;4046;48.774;8.732;2023-04-03T08:34:20;20.60;79.60
8002;DHT22;4046;48.774;8.732;2023-04-03T08:36:47;20.60;79.80
8002;DHT22;4046;48.774;8.732;2023-04-03T08:39:13;20.60;79.60
8002;DHT22;4046;48.774;8.732;2023-04-03T08:41:44;20.60;79.60
8002;DHT22;4046;48.774;8.732;2023-04-03T08:44:25;20.60;79.60
8002;DHT22;4046;48.774;8.732;2023-04-03T08:49:48;20.60;79.60
8002;DHT22;4046;48.774;8.732;2023-04-03T08:52:19;20.60;79.60
8002;DHT22;4046;48.774;8.732;2023-04-03T08:54:51;20.60;79.60
8002;DHT22;4046;48.774;8.732;2023-04-03T08:57:34;20.60;79.60
8002;DHT22;4046;48.774;8.732;2023-04-03T09:02:47;20.60;79.60
8002;DHT22;4046;48.774;8.732;2023-04-03T09:05:17;20.60;79.60
8002;DHT22;4046;48.774;8.732;2023-04-03T09:07:53;20.60;79.50
8002;DHT22;4046;48.774;8.732;2023-04-03T09:10:27;20.60;79.50
8002;DHT22;4046;48.774;8.732;2023-04-03T09:15:36;20.60;79.50
8002;DHT22;4046;48.774;8.732;2023-04-03T09:18:16;20.50;79.50
8002;DHT22;4046;48.774;8.732;2023-04-03T09:23:43;20.60;79.50
8002;DHT22;4046;48.774;8.732;2023-04-03T09:26:30;20.60;79.40
8002;DHT22;4046;48.774;8.732;2023-04-03T09:29:02;20.60;79.40
8002;DHT22;4046;48.774;8.732;2023-04-03T09:31:39;20.60;79.50
8002;DHT22;4046;48.774;8.732;2023-04-03T09:34:14;20.50;79.50
8002;DHT22;4046;48.774;8.732;2023-04-03T09:36:45;20.50;79.50
8002;DHT22;4046;48.774;8.732;2023-04-03T09:39:18;20.50;79.50
8002;DHT22;4046;48.774;8.732;2023-04-03T09:44:41;20.50;79.50
8002;DHT22;4046;48.774;8.732;2023-04-03T09:47:29;20.50;79.50
8002;DHT22;4046;48.774;8.732;2023-04-03T09:52:42;20.50;79.40
8002;DHT22;4046;48.774;8.732;2023-04-03T09:57:45;20.60;79.30
8002;DHT22;4046;48.774;8.732;2023-04-03T10:00:23;20.60;79.30
8002;DHT22;4046;48.774;8.732;2023-04-03T10:02:54;20.60;79.30
8002;DHT22;4046;48.774;8.732;2023-04-03T10:05:36;20.60;79.30
8002;DHT22;4046;48.774;8.732;2023-04-03T10:10:44;20.60;79.20
8002;DHT22;4046;48.774;8.732;2023-04-03T10:15:46;20.70;79.10
8002;DHT22;4046;48.774;8.732;2023-04-03T10:24:06;20.60;79.20
8002;DHT22;4046;48.774;8.732;2023-04-03T10:26:58;20.60;79.20
8002;DHT22;4046;48.774;8.732;2023-04-03T10:29:59;20.50;79.10
8002;DHT22;4046;48.774;8.732;2023-04-03T10:32:45;20.50;79.20
8002;DHT22;4046;48.774;8.732;2023-04-03T10:35:44;20.50;79.20
8002;DHT22;4046;48.774;8.732;2023-04-03T10:41:02;20.40;79.30
8002;DHT22;4046;48.774;8.732;2023-04-03T10:43:50;20.40;79.30
8002;DHT22;4046;48.774;8.732;2023-04-03T10:46:22;20.40;79.30
8002;DHT22;4046;48.774;8.732;2023-04-03T10:51:47;20.40;79.40
8002;DHT22;4046;48.774;8.732;2023-04-03T10:57:03;20.40;79.30
8002;DHT22;4046;48.774;8.732;2023-04-03T10:59:37;20.30;79.30
8002;DHT22;4046;48.774;8.732;2023-04-03T11:02:19;20.30;79.40
8002;DHT22;4046;48.774;8.732;2023-04-03T11:04:53;20.30;79.40
8002;DHT22;4046;48.774;8.732;2023-04-03T11:07:22;20.30;79.40
8002;DHT22;4046;48.774;8.732;2023-04-03T11:10:02;20.30;79.40
8002;DHT22;4046;48.774;8.732;2023-04-03T11:12:39;20.30;79.30
8002;DHT22;4046;48.774;8.732;2023-04-03T11:15:15;20.40;79.40
8002;DHT22;4046;48.774;8.732;2023-04-03T11:18:00;20.40;79.40
8002;DHT22;4046;48.774;8.732;2023-04-03T11:20:30;20.40;79.40
8002;DHT22;4046;48.774;8.732;2023-04-03T11:23:26;20.40;79.40
8002;DHT22;4046;48.774;8.732;2023-04-03T11:25:56;20.40;79.30
8002;DHT22;4046;48.774;8.732;2023-04-03T11:28:24;20.40;79.30
8002;DHT22;4046;48.774;8.732;2023-04-03T11:34:03;20.30;79.30
8002;DHT22;4046;48.774;8.732;2023-04-03T11:36:38;20.30;79.30
8002;DHT22;4046;48.774;8.732;2023-04-03T11:41:43;20.30;79.30
8002;DHT22;4046;48.774;8.732;2023-04-03T11:44:35;20.30;79.30
8002;DHT22;4046;48.774;8.732;2023-04-03T11:47:03;20.30;79.30
8002;DHT22;4046;48.774;8.732;2023-04-03T11:50:02;20.30;79.40
8002;DHT22;4046;48.774;8.732;2023-04-03T11:58:03;20.20;79.30
8002;DHT22;4046;48.774;8.732;2023-04-03T12:29:28;20.20;79.30
8002;DHT22;4046;48.774;8.732;2023-04-03T12:32:17;20.20;79.30
8002;DHT22;4046;48.774;8.732;2023-04-03T12:43:37;20.20;79.30
8002;DHT22;4046;48.774;8.732;2023-04-03T12:51:15;20.20;79.30
8002;DHT22;4046;48.774;8.732;2023-04-03T12:53:44;20.20;79.20
8002;DHT22;4046;48.774;8.732;2023-04-03T12:58:49;20.20;79.10
8002;DHT22;4046;48.774;8.732;2023-04-03T13:01:20;20.20;79.10
8002;DHT22;4046;48.774;8.732;2023-04-03T13:03:54;20.20;79.10
8002;DHT22;4046;48.774;8.732;2023-04-03T13:06:23;20.20;79.10
8002;DHT22;4046;48.774;8.732;2023-04-03T13:08:59;20.30;79.10
8002;DHT22;4046;48.774;8.732;2023-04-03T13:11:34;20.30;79.10
8002;DHT22;4046;48.774;8.732;2023-04-03T13:14:04;20.30;79.10
8002;DHT22;4046;48.774;8.732;2023-04-03T13:16:32;20.30;79.00
8002;DHT22;4046;48.774;8.732;2023-04-03T13:18:59;20.30;78.90
8002;DHT22;4046;48.774;8.732;2023-04-03T13:21:28;20.30;78.90
8002;DHT22;4046;48.774;8.732;2023-04-03T13:23:58;20.30;78.90
8002;DHT22;4046;48.774;8.732;2023-04-03T13:26:28;20.30;78.90
8002;DHT22;4046;48.774;8.732;2023-04-03T13:28:59;20.30;78.90
8002;DHT22;4046;48.774;8.732;2023-04-03T13:31:30;20.30;79.00
8002;DHT22;4046;48.774;8.732;2023-04-03T13:36:46;20.30;78.90
8002;DHT22;4046;48.774;8.732;2023-04-03T13:39:24;20.30;78.80
8002;DHT22;4046;48.774;8.732;2023-04-03T13:41:52;20.30;78.80
8002;DHT22;4046;48.774;8.732;2023-04-03T13:46:57;20.40;78.80
8002;DHT22;4046;48.774;8.732;2023-04-03T13:49:31;20.40;78.80
8002;DHT22;4046;48.774;8.732;2023-04-03T13:51:58;20.40;78.80
8002;DHT22;4046;48.774;8.732;2023-04-03T13:54:31;20.30;78.80
8002;DHT22;4046;48.774;8.732;2023-04-03T13:56:59;20.30;78.70
8002;DHT22;4046;48.774;8.732;2023-04-03T13:59:34;20.40;78.70
8002;DHT22;4046;48.774;8.732;2023-04-03T14:07:03;20.30;78.80
8002;DHT22;4046;48.774;8.732;2023-04-03T14:09:29;20.20;78.70
8002;DHT22;4046;48.774;8.732;2023-04-03T14:12:00;20.30;78.80
8002;DHT22;4046;48.774;8.732;2023-04-03T14:14:33;20.30;78.90
8002;DHT22;4046;48.774;8.732;2023-04-03T14:17:03;20.30;78.90
8002;DHT22;4046;48.774;8.732;2023-04-03T14:19:33;20.20;78.80
8002;DHT22;4046;48.774;8.732;2023-04-03T14:22:01;20.30;78.90
8002;DHT22;4046;48.774;8.732;2023-04-03T14:24:27;20.30;78.90
8002;DHT22;4046;48.774;8.732;2023-04-03T14:26:54;20.30;78.90
8002;DHT22;4046;48.774;8.732;2023-04-03T14:29:22;20.30;78.90
8002;DHT22;4046;48.774;8.732;2023-04-03T14:31:50;20.30;78.80
8002;DHT22;4046;48.774;8.732;2023-04-03T14:34:16;20.30;78.80
8002;DHT22;4046;48.774;8.732;2023-04-03T14:36:44;20.30;78.80
8002;DHT22;4046;48.774;8.732;2023-04-03T14:39:16;20.30;78.80
8002;DHT22;4046;48.774;8.732;2023-04-03T14:41:43;20.30;78.70
8002;DHT22;4046;48.774;8.732;2023-04-03T14:44:09;20.30;78.70
8002;DHT22;4046;48.774;8.732;2023-04-03T14:46:38;20.30;78.70
8002;DHT22;4046;48.774;8.732;2023-04-03T14:49:14;20.30;78.70
8002;DHT22;4046;48.774;8.732;2023-04-03T14:51:40;20.30;78.70
8002;DHT22;4046;48.774;8.732;2023-04-03T14:54:13;20.30;78.70
8002;DHT22;4046;48.774;8.732;2023-04-03T14:56:40;20.30;78.80
8002;DHT22;4046;48.774;8.732;2023-04-03T14:59:09;20.30;78.80
8002;DHT22;4046;48.774;8.732;2023-04-03T15:01:36;20.30;78.80
8002;DHT22;4046;48.774;8.732;2023-04-03T15:04:14;20.30;78.80
8002;DHT22;4046;48.774;8.732;2023-04-03T15:06:41;20.30;78.80
8002;DHT22;4046;48.774;8.732;2023-04-03T15:11:44;20.20;78.70
8002;DHT22;4046;48.774;8.732;2023-04-03T15:14:10;20.20;78.70
8002;DHT22;4046;48.774;8.732;2023-04-03T15:16:37;20.20;78.70
8002;DHT22;4046;48.774;8.732;2023-04-03T15:19:03;20.20;78.70
8002;DHT22;4046;48.774;8.732;2023-04-03T15:21:29;20.20;78.60
8002;DHT22;4046;48.774;8.732;2023-04-03T15:23:55;20.20;78.70
8002;DHT22;4046;48.774;8.732;2023-04-03T15:26:22;20.20;78.60
8002;DHT22;4046;48.774;8.732;2023-04-03T15:28:48;20.20;78.60
8002;DHT22;4046;48.774;8.732;2023-04-03T15:31:14;20.20;78.60
8002;DHT22;4046;48.774;8.732;2023-04-03T15:33:40;20.20;78.60
8002;DHT22;4046;48.774;8.732;2023-04-03T15:36:07;20.20;78.60
8002;DHT22;4046;48.774;8.732;2023-04-03T15:38:34;20.20;78.60
8002;DHT22;4046;48.774;8.732;2023-04-03T15:41:01;20.30;78.80
8002;DHT22;4046;48.774;8.732;2023-04-03T15:43:27;20.20;78.60
8002;DHT22;4046;48.774;8.732;2023-04-03T15:45:56;20.20;78.70
8002;DHT22;4046;48.774;8.732;2023-04-03T15:48:24;20.20;78.60
8002;DHT22;4046;48.774;8.732;2023-04-03T15:50:51;20.20;78.60
8002;DHT22;4046;48.774;8.732;2023-04-03T15:53:17;20.20;78.60
8002;DHT22;4046;48.774;8.732;2023-04-03T15:55:43;20.30;78.70
8002;DHT22;4046;48.774;8.732;2023-04-03T15:58:09;20.30;78.60
8002;DHT22;4046;48.774;8.732;2023-04-03T16:00:37;20.30;78.60
8002;DHT22;4046;48.774;8.732;2023-04-03T16:03:12;20.40;78.70
8002;DHT22;4046;48.774;8.732;2023-04-03T16:05:41;20.40;79.00
8002;DHT22;4046;48.774;8.732;2023-04-03T16:08:07;20.50;78.70
8002;DHT22;4046;48.774;8.732;2023-04-03T16:10:37;20.40;78.60
8002;DHT22;4046;48.774;8.732;2023-04-03T16:13:03;20.50;78.70
8002;DHT22;4046;48.774;8.732;2023-04-03T16:15:30;20.50;78.60
8002;DHT22;4046;48.774;8.732;2023-04-03T16:17:58;20.50;78.60
8002;DHT22;4046;48.774;8.732;2023-04-03T16:20:25;20.50;78.50
8002;DHT22;4046;48.774;8.732;2023-04-03T16:22:52;20.50;78.50
8002;DHT22;4046;48.774;8.732;2023-04-03T16:25:18;20.50;78.50
8002;DHT22;4046;48.774;8.732;2023-04-03T16:27:45;20.60;78.60
8002;DHT22;4046;48.774;8.732;2023-04-03T16:30:11;20.50;78.50
8002;DHT22;4046;48.774;8.732;2023-04-03T16:32:38;20.50;78.50
8002;DHT22;4046;48.774;8.732;2023-04-03T16:35:05;20.50;78.50
8002;DHT22;4046;48.774;8.732;2023-04-03T16:37:31;20.50;78.50
8002;DHT22;4046;48.774;8.732;2023-04-03T16:39:58;20.50;78.50
8002;DHT22;4046;48.774;8.732;2023-04-03T16:42:25;20.60;78.50
8002;DHT22;4046;48.774;8.732;2023-04-03T16:44:51;20.50;78.50
8002;DHT22;4046;48.774;8.732;2023-04-03T16:47:17;20.50;78.50
8002;DHT22;4046;48.774;8.732;2023-04-03T16:49:45;20.50;78.50
8002;DHT22;4046;48.774;8.732;2023-04-03T16:52:13;20.50;78.50
8002;DHT22;4046;48.774;8.732;2023-04-03T16:54:39;20.50;78.50
8002;DHT22;4046;48.774;8.732;2023-04-03T16:57:06;20.50;78.50
8002;DHT22;4046;48.774;8.732;2023-04-03T16:59:32;20.50;78.50
8002;DHT22;4046;48.774;8.732;2023-04-03T17:01:58;20.50;78.50
8002;DHT22;4046;48.774;8.732;2023-04-03T17:04:24;20.50;78.50
8002;DHT22;4046;48.774;8.732;2023-04-03T17:06:51;20.50;78.50
8002;DHT22;4046;48.774;8.732;2023-04-03T17:09:17;20.50;78.50
8002;DHT22;4046;48.774;8.732;2023-04-03T17:11:44;20.50;78.50
8002;DHT22;4046;48.774;8.732;2023-04-03T17:14:11;20.50;78.60
8002;DHT22;4046;48.774;8.732;2023-04-03T17:16:38;20.50;78.50
8002;DHT22;4046;48.774;8.732;2023-04-03T17:19:04;20.40;78.40
8002;DHT22;4046;48.774;8.732;2023-04-03T17:21:36;20.40;78.50
8002;DHT22;4046;48.774;8.732;2023-04-03T17:24:05;20.40;78.50
8002;DHT22;4046;48.774;8.732;2023-04-03T17:26:34;20.40;78.50
8002;DHT22;4046;48.774;8.732;2023-04-03T17:29:03;20.40;78.50
8002;DHT22;4046;48.774;8.732;2023-04-03T17:31:29;20.40;78.60
8002;DHT22;4046;48.774;8.732;2023-04-03T17:33:55;20.40;78.60
8002;DHT22;4046;48.774;8.732;2023-04-03T17:36:22;20.40;78.60
8002;DHT22;4046;48.774;8.732;2023-04-03T17:38:50;20.40;78.60
8002;DHT22;4046;48.774;8.732;2023-04-03T17:41:16;20.40;78.60
8002;DHT22;4046;48.774;8.732;2023-04-03T17:43:43;20.40;78.70
8002;DHT22;4046;48.774;8.732;2023-04-03T17:46:09;20.30;78.50
8002;DHT22;4046;48.774;8.732;2023-04-03T17:48:38;20.30;78.50
8002;DHT22;4046;48.774;8.732;2023-04-03T17:51:07;20.30;78.50
8002;DHT22;4046;48.774;8.732;2023-04-03T17:53:34;20.30;78.50
8002;DHT22;4046;48.774;8.732;2023-04-03T17:56:12;20.30;78.60
8002;DHT22;4046;48.774;8.732;2023-04-03T17:58:39;20.30;78.50
8002;DHT22;4046;48.774;8.732;2023-04-03T18:01:24;20.30;78.60
8002;DHT22;4046;48.774;8.732;2023-04-03T18:03:55;20.30;78.60
8002;DHT22;4046;48.774;8.732;2023-04-03T18:06:26;20.30;78.60
8002;DHT22;4046;48.774;8.732;2023-04-03T18:08:55;20.30;78.60
8002;DHT22;4046;48.774;8.732;2023-04-03T18:11:26;20.30;78.60
8002;DHT22;4046;48.774;8.732;2023-04-03T18:13:55;20.30;78.70